sensor_id;sensor_type;location;lat;lon;timestamp;P1;durP1;ratioP1;P2;durP2;ratioP2
7213;SDS011;3648;50.614;13.830;2024-03-08T00:01:03;28.47;;;19.80;;
7213;SDS011;3648;50.614;13.830;2024-03-08T00:03:31;23.37;;;17.73;;
7213;SDS011;3648;50.614;13.830;2024-03-08T00:05:58;24.73;;;18.27;;
7213;SDS011;3648;50.614;13.830;2024-03-08T00:08:25;25.70;;;18.17;;
7213;SDS011;3648;50.614;13.830;2024-03-08T00:10:52;26.20;;;17.90;;
7213;SDS011;3648;50.614;13.830;2024-03-08T00:13:19;25.97;;;18.67;;
7213;SDS011;3648;50.614;13.830;2024-03-08T00:15:48;26.33;;;18.60;;
7213;SDS011;3648;50.614;13.830;2024-03-08T00:18:15;27.53;;;19.47;;
7213;SDS011;3648;50.614;13.830;2024-03-08T00:20:42;25.93;;;19.00;;
7213;SDS011;3648;50.614;13.830;2024-03-08T00:38:43;26.20;;;17.83;;
7213;SDS011;3648;50.614;13.830;2024-03-08T00:41:11;30.00;;;20.87;;
7213;SDS011;3648;50.614;13.830;2024-03-08T00:43:38;29.63;;;19.27;;
7213;SDS011;3648;50.614;13.830;2024-03-08T01:09:25;28.87;;;20.30;;
7213;SDS011;3648;50.614;13.830;2024-03-08T01:11:53;31.80;;;22.57;;
7213;SDS011;3648;50.614;13.830;2024-03-08T01:14:20;32.23;;;21.77;;
7213;SDS011;3648;50.614;13.830;2024-03-08T01:16:47;30.90;;;21.60;;
7213;SDS011;3648;50.614;13.830;2024-03-08T01:19:15;31.23;;;20.73;;
7213;SDS011;3648;50.614;13.830;2024-03-08T01:21:42;31.40;;;20.70;;
7213;SDS011;3648;50.614;13.830;2024-03-08T01:24:09;28.83;;;20.47;;
7213;SDS011;3648;50.614;13.830;2024-03-08T01:26:38;29.97;;;20.90;;
7213;SDS011;3648;50.614;13.830;2024-03-08T01:29:05;29.07;;;20.17;;
7213;SDS011;3648;50.614;13.830;2024-03-08T01:31:33;29.17;;;20.30;;
7213;SDS011;3648;50.614;13.830;2024-03-08T01:34:01;29.63;;;20.67;;
7213;SDS011;3648;50.614;13.830;2024-03-08T01:36:28;29.43;;;19.63;;
7213;SDS011;3648;50.614;13.830;2024-03-08T01:38:55;26.50;;;20.17;;
7213;SDS011;3648;50.614;13.830;2024-03-08T01:41:22;33.00;;;21.60;;
7213;SDS011;3648;50.614;13.830;2024-03-08T01:43:51;26.30;;;20.07;;
7213;SDS011;3648;50.614;13.830;2024-03-08T01:46:19;29.80;;;20.53;;
7213;SDS011;3648;50.614;13.830;2024-03-08T01:48:48;28.47;;;21.23;;
7213;SDS011;3648;50.614;13.830;2024-03-08T01:51:15;29.07;;;19.77;;
7213;SDS011;3648;50.614;13.830;2024-03-08T01:53:43;26.87;;;19.70;;
7213;SDS011;3648;50.614;13.830;2024-03-08T01:56:13;28.50;;;20.73;;
7213;SDS011;3648;50.614;13.830;2024-03-08T01:58:40;27.83;;;19.33;;
7213;SDS011;3648;50.614;13.830;2024-03-08T02:01:09;24.33;;;18.27;;
7213;SDS011;3648;50.614;13.830;2024-03-08T02:03:39;26.13;;;17.37;;
7213;SDS011;3648;50.614;13.830;2024-03-08T02:06:09;29.03;;;20.37;;
7213;SDS011;3648;50.614;13.830;2024-03-08T02:08:38;28.70;;;19.80;;
7213;SDS011;3648;50.614;13.830;2024-03-08T02:11:05;28.00;;;18.90;;
7213;SDS011;3648;50.614;13.830;2024-03-08T02:13:32;28.30;;;19.87;;
7213;SDS011;3648;50.614;13.830;2024-03-08T02:15:59;26.70;;;18.43;;
7213;SDS011;3648;50.614;13.830;2024-03-08T02:18:29;27.73;;;19.40;;
7213;SDS011;3648;50.614;13.830;2024-03-08T02:21:01;27.07;;;18.73;;
7213;SDS011;3648;50.614;13.830;2024-03-08T02:23:28;32.70;;;20.70;;
7213;SDS011;3648;50.614;13.830;2024-03-08T02:25:56;32.93;;;19.97;;
7213;SDS011;3648;50.614;13.830;2024-03-08T02:28:23;25.53;;;17.87;;
7213;SDS011;3648;50.614;13.830;2024-03-08T02:30:51;24.43;;;18.33;;
7213;SDS011;3648;50.614;13.830;2024-03-08T02:33:19;30.10;;;19.27;;
7213;SDS011;3648;50.614;13.830;2024-03-08T02:35:47;30.77;;;19.00;;
7213;SDS011;3648;50.614;13.830;2024-03-08T02:38:17;28.10;;;19.40;;
7213;SDS011;3648;50.614;13.830;2024-03-08T02:40:45;27.30;;;19.37;;
7213;SDS011;3648;50.614;13.830;2024-03-08T02:43:13;28.33;;;19.80;;
7213;SDS011;3648;50.614;13.830;2024-03-08T02:45:42;25.50;;;18.70;;
7213;SDS011;3648;50.614;13.830;2024-03-08T02:48:09;27.87;;;19.13;;
7213;SDS011;3648;50.614;13.830;2024-03-08T02:50:36;28.40;;;19.53;;
7213;SDS011;3648;50.614;13.830;2024-03-08T02:53:05;28.87;;;19.47;;
7213;SDS011;3648;50.614;13.830;2024-03-08T02:55:34;27.77;;;19.97;;
7213;SDS011;3648;50.614;13.830;2024-03-08T02:58:01;28.97;;;19.63;;
7213;SDS011;3648;50.614;13.830;2024-03-08T03:00:29;29.70;;;20.27;;
7213;SDS011;3648;50.614;13.830;2024-03-08T03:02:57;26.37;;;18.23;;
7213;SDS011;3648;50.614;13.830;2024-03-08T03:05:24;26.50;;;19.10;;
7213;SDS011;3648;50.614;13.830;2024-03-08T03:07:51;25.90;;;18.93;;
7213;SDS011;3648;50.614;13.830;2024-03-08T03:10:19;26.80;;;19.87;;
7213;SDS011;3648;50.614;13.830;2024-03-08T03:12:48;28.57;;;19.37;;
7213;SDS011;3648;50.614;13.830;2024-03-08T03:15:15;27.77;;;19.63;;
7213;SDS011;3648;50.614;13.830;2024-03-08T03:17:45;27.30;;;19.40;;
7213;SDS011;3648;50.614;13.830;2024-03-08T03:20:13;25.50;;;18.93;;
7213;SDS011;3648;50.614;13.830;2024-03-08T03:22:47;28.90;;;19.77;;
7213;SDS011;3648;50.614;13.830;2024-03-08T03:25:17;29.70;;;19.20;;
7213;SDS011;3648;50.614;13.830;2024-03-08T03:27:51;28.73;;;19.47;;
7213;SDS011;3648;50.614;13.830;2024-03-08T03:30:21;29.17;;;20.07;;
7213;SDS011;3648;50.614;13.830;2024-03-08T03:32:48;29.20;;;20.13;;
7213;SDS011;3648;50.614;13.830;2024-03-08T03:35:16;28.97;;;19.17;;
7213;SDS011;3648;50.614;13.830;2024-03-08T03:37:43;26.97;;;19.47;;
7213;SDS011;3648;50.614;13.830;2024-03-08T03:40:16;33.33;;;20.97;;
7213;SDS011;3648;50.614;13.830;2024-03-08T03:42:45;30.53;;;19.30;;
7213;SDS011;3648;50.614;13.830;2024-03-08T03:45:13;28.37;;;19.27;;
7213;SDS011;3648;50.614;13.830;2024-03-08T03:47:45;26.73;;;20.10;;
7213;SDS011;3648;50.614;13.830;2024-03-08T03:50:12;28.50;;;20.50;;
7213;SDS011;3648;50.614;13.830;2024-03-08T03:52:39;29.33;;;20.17;;
7213;SDS011;3648;50.614;13.830;2024-03-08T03:55:07;27.63;;;20.17;;
7213;SDS011;3648;50.614;13.830;2024-03-08T03:57:35;28.17;;;19.13;;
7213;SDS011;3648;50.614;13.830;2024-03-08T04:00:02;27.90;;;18.53;;
7213;SDS011;3648;50.614;13.830;2024-03-08T04:02:32;26.87;;;18.77;;
7213;SDS011;3648;50.614;13.830;2024-03-08T04:04:59;30.30;;;19.37;;
7213;SDS011;3648;50.614;13.830;2024-03-08T04:07:27;28.93;;;19.50;;
7213;SDS011;3648;50.614;13.830;2024-03-08T04:09:54;27.20;;;19.20;;
7213;SDS011;3648;50.614;13.830;2024-03-08T04:12:21;28.97;;;19.47;;
7213;SDS011;3648;50.614;13.830;2024-03-08T04:14:48;25.17;;;18.40;;
7213;SDS011;3648;50.614;13.830;2024-03-08T04:17:15;30.30;;;19.27;;
7213;SDS011;3648;50.614;13.830;2024-03-08T04:19:44;27.03;;;18.87;;
7213;SDS011;3648;50.614;13.830;2024-03-08T04:22:13;25.03;;;18.50;;
7213;SDS011;3648;50.614;13.830;2024-03-08T04:24:42;28.10;;;19.23;;
7213;SDS011;3648;50.614;13.830;2024-03-08T04:27:09;25.77;;;18.33;;
7213;SDS011;3648;50.614;13.830;2024-03-08T04:29:36;28.70;;;18.87;;
7213;SDS011;3648;50.614;13.830;2024-03-08T04:32:04;29.30;;;20.10;;
7213;SDS011;3648;50.614;13.830;2024-03-08T04:34:31;29.70;;;19.63;;
7213;SDS011;3648;50.614;13.830;2024-03-08T04:37:00;29.20;;;18.93;;
7213;SDS011;3648;50.614;13.830;2024-03-08T04:39:29;30.60;;;19.67;;
7213;SDS011;3648;50.614;13.830;2024-03-08T04:41:57;28.83;;;20.13;;
7213;SDS011;3648;50.614;13.830;2024-03-08T04:44:28;28.10;;;20.37;;
7213;SDS011;3648;50.614;13.830;2024-03-08T04:46:55;28.60;;;19.27;;
7213;SDS011;3648;50.614;13.830;2024-03-08T04:49:22;27.87;;;19.63;;
7213;SDS011;3648;50.614;13.830;2024-03-08T04:51:49;30.27;;;19.00;;
7213;SDS011;3648;50.614;13.830;2024-03-08T04:54:18;28.73;;;18.93;;
7213;SDS011;3648;50.614;13.830;2024-03-08T04:56:45;30.27;;;20.33;;
7213;SDS011;3648;50.614;13.830;2024-03-08T04:59:12;28.40;;;19.17;;
7213;SDS011;3648;50.614;13.830;2024-03-08T05:01:40;25.13;;;19.43;;
7213;SDS011;3648;50.614;13.830;2024-03-08T05:04:08;26.80;;;19.03;;
7213;SDS011;3648;50.614;13.830;2024-03-08T05:06:35;27.73;;;19.37;;
7213;SDS011;3648;50.614;13.830;2024-03-08T05:09:02;28.67;;;19.37;;
7213;SDS011;3648;50.614;13.830;2024-03-08T05:11:39;30.27;;;20.60;;
7213;SDS011;3648;50.614;13.830;2024-03-08T05:14:07;29.20;;;20.27;;
7213;SDS011;3648;50.614;13.830;2024-03-08T05:16:34;30.40;;;21.63;;
7213;SDS011;3648;50.614;13.830;2024-03-08T05:19:02;30.60;;;21.13;;
7213;SDS011;3648;50.614;13.830;2024-03-08T05:21:29;30.47;;;21.13;;
7213;SDS011;3648;50.614;13.830;2024-03-08T05:23:56;31.27;;;19.37;;
7213;SDS011;3648;50.614;13.830;2024-03-08T05:26:23;29.03;;;20.30;;
7213;SDS011;3648;50.614;13.830;2024-03-08T05:28:51;29.17;;;20.73;;
7213;SDS011;3648;50.614;13.830;2024-03-08T05:31:19;28.10;;;19.53;;
7213;SDS011;3648;50.614;13.830;2024-03-08T05:33:48;27.47;;;19.10;;
7213;SDS011;3648;50.614;13.830;2024-03-08T05:36:15;28.90;;;19.83;;
7213;SDS011;3648;50.614;13.830;2024-03-08T05:38:42;30.73;;;20.80;;
7213;SDS011;3648;50.614;13.830;2024-03-08T05:41:10;29.33;;;20.07;;
7213;SDS011;3648;50.614;13.830;2024-03-08T05:43:37;28.50;;;20.40;;
7213;SDS011;3648;50.614;13.830;2024-03-08T05:46:08;28.97;;;19.70;;
7213;SDS011;3648;50.614;13.830;2024-03-08T05:48:36;29.33;;;19.90;;
7213;SDS011;3648;50.614;13.830;2024-03-08T05:51:03;28.13;;;19.57;;
7213;SDS011;3648;50.614;13.830;2024-03-08T05:53:31;29.47;;;21.10;;
7213;SDS011;3648;50.614;13.830;2024-03-08T05:55:58;30.37;;;20.67;;
7213;SDS011;3648;50.614;13.830;2024-03-08T05:58:27;30.50;;;20.03;;
7213;SDS011;3648;50.614;13.830;2024-03-08T06:00:56;31.13;;;20.67;;
7213;SDS011;3648;50.614;13.830;2024-03-08T06:03:24;26.87;;;18.87;;
7213;SDS011;3648;50.614;13.830;2024-03-08T06:05:51;30.13;;;20.60;;
7213;SDS011;3648;50.614;13.830;2024-03-08T06:08:18;34.30;;;20.87;;
7213;SDS011;3648;50.614;13.830;2024-03-08T06:10:45;28.87;;;20.80;;
7213;SDS011;3648;50.614;13.830;2024-03-08T06:13:17;28.27;;;20.20;;
7213;SDS011;3648;50.614;13.830;2024-03-08T06:15:44;32.43;;;20.60;;
7213;SDS011;3648;50.614;13.830;2024-03-08T06:18:11;33.33;;;21.77;;
7213;SDS011;3648;50.614;13.830;2024-03-08T06:20:41;27.77;;;19.43;;
7213;SDS011;3648;50.614;13.830;2024-03-08T06:23:11;30.17;;;19.13;;
7213;SDS011;3648;50.614;13.830;2024-03-08T06:25:39;31.07;;;20.00;;
7213;SDS011;3648;50.614;13.830;2024-03-08T06:28:06;25.83;;;19.03;;
7213;SDS011;3648;50.614;13.830;2024-03-08T06:30:33;30.47;;;19.63;;
7213;SDS011;3648;50.614;13.830;2024-03-08T06:33:00;31.40;;;21.37;;
7213;SDS011;3648;50.614;13.830;2024-03-08T06:35:27;32.93;;;22.87;;
7213;SDS011;3648;50.614;13.830;2024-03-08T06:37:58;32.50;;;22.03;;
7213;SDS011;3648;50.614;13.830;2024-03-08T06:40:25;27.80;;;20.60;;
7213;SDS011;3648;50.614;13.830;2024-03-08T06:42:52;33.73;;;20.80;;
7213;SDS011;3648;50.614;13.830;2024-03-08T06:45:19;28.67;;;21.33;;
7213;SDS011;3648;50.614;13.830;2024-03-08T06:47:46;31.87;;;22.07;;
7213;SDS011;3648;50.614;13.830;2024-03-08T06:50:14;30.17;;;19.80;;
7213;SDS011;3648;50.614;13.830;2024-03-08T06:52:41;31.07;;;20.73;;
7213;SDS011;3648;50.614;13.830;2024-03-08T06:55:10;32.07;;;20.67;;
7213;SDS011;3648;50.614;13.830;2024-03-08T06:57:38;32.93;;;20.50;;
7213;SDS011;3648;50.614;13.830;2024-03-08T07:00:06;32.60;;;21.63;;
7213;SDS011;3648;50.614;13.830;2024-03-08T07:02:34;31.43;;;22.07;;
7213;SDS011;3648;50.614;13.830;2024-03-08T07:05:02;32.10;;;21.73;;
7213;SDS011;3648;50.614;13.830;2024-03-08T07:07:29;33.67;;;22.50;;
7213;SDS011;3648;50.614;13.830;2024-03-08T07:09:57;33.13;;;24.70;;
7213;SDS011;3648;50.614;13.830;2024-03-08T07:12:25;31.20;;;22.03;;
7213;SDS011;3648;50.614;13.830;2024-03-08T07:14:52;34.57;;;23.17;;
7213;SDS011;3648;50.614;13.830;2024-03-08T07:17:19;30.70;;;22.63;;
7213;SDS011;3648;50.614;13.830;2024-03-08T07:19:46;32.73;;;21.70;;
7213;SDS011;3648;50.614;13.830;2024-03-08T07:22:13;32.47;;;22.20;;
7213;SDS011;3648;50.614;13.830;2024-03-08T07:24:40;30.83;;;21.30;;
7213;SDS011;3648;50.614;13.830;2024-03-08T07:27:30;28.90;;;21.90;;
7213;SDS011;3648;50.614;13.830;2024-03-08T07:29:59;26.37;;;19.73;;
7213;SDS011;3648;50.614;13.830;2024-03-08T07:32:27;29.77;;;19.23;;
7213;SDS011;3648;50.614;13.830;2024-03-08T07:34:55;28.30;;;20.27;;
7213;SDS011;3648;50.614;13.830;2024-03-08T07:37:22;27.33;;;19.77;;
7213;SDS011;3648;50.614;13.830;2024-03-08T07:39:49;27.47;;;20.27;;
7213;SDS011;3648;50.614;13.830;2024-03-08T07:42:16;27.40;;;19.43;;
7213;SDS011;3648;50.614;13.830;2024-03-08T07:44:44;28.63;;;19.43;;
7213;SDS011;3648;50.614;13.830;2024-03-08T07:47:13;27.27;;;18.20;;
7213;SDS011;3648;50.614;13.830;2024-03-08T07:49:42;26.47;;;19.53;;
7213;SDS011;3648;50.614;13.830;2024-03-08T07:52:09;27.17;;;19.60;;
7213;SDS011;3648;50.614;13.830;2024-03-08T07:54:40;25.47;;;19.40;;
7213;SDS011;3648;50.614;13.830;2024-03-08T07:57:08;28.17;;;19.80;;
7213;SDS011;3648;50.614;13.830;2024-03-08T07:59:35;27.97;;;19.60;;
7213;SDS011;3648;50.614;13.830;2024-03-08T08:02:03;27.30;;;20.03;;
7213;SDS011;3648;50.614;13.830;2024-03-08T08:04:31;25.47;;;18.53;;
7213;SDS011;3648;50.614;13.830;2024-03-08T08:06:58;25.57;;;19.80;;
7213;SDS011;3648;50.614;13.830;2024-03-08T08:09:25;28.40;;;19.43;;
7213;SDS011;3648;50.614;13.830;2024-03-08T08:11:59;28.13;;;20.17;;
7213;SDS011;3648;50.614;13.830;2024-03-08T08:14:26;30.70;;;19.70;;
7213;SDS011;3648;50.614;13.830;2024-03-08T08:16:54;25.47;;;19.57;;
7213;SDS011;3648;50.614;13.830;2024-03-08T08:19:23;28.80;;;20.53;;
7213;SDS011;3648;50.614;13.830;2024-03-08T08:21:51;27.77;;;20.73;;
7213;SDS011;3648;50.614;13.830;2024-03-08T08:24:18;28.40;;;20.17;;
7213;SDS011;3648;50.614;13.830;2024-03-08T08:26:47;28.83;;;20.83;;
7213;SDS011;3648;50.614;13.830;2024-03-08T08:29:14;30.13;;;20.03;;
7213;SDS011;3648;50.614;13.830;2024-03-08T08:31:41;30.87;;;21.60;;
7213;SDS011;3648;50.614;13.830;2024-03-08T08:34:08;30.13;;;20.37;;
7213;SDS011;3648;50.614;13.830;2024-03-08T08:36:38;30.03;;;21.67;;
7213;SDS011;3648;50.614;13.830;2024-03-08T08:39:05;29.03;;;20.40;;
7213;SDS011;3648;50.614;13.830;2024-03-08T08:41:37;27.53;;;20.47;;
7213;SDS011;3648;50.614;13.830;2024-03-08T08:44:05;31.23;;;21.10;;
7213;SDS011;3648;50.614;13.830;2024-03-08T08:46:35;29.67;;;21.30;;
7213;SDS011;3648;50.614;13.830;2024-03-08T08:49:02;29.90;;;21.20;;
7213;SDS011;3648;50.614;13.830;2024-03-08T08:51:30;27.30;;;20.07;;
7213;SDS011;3648;50.614;13.830;2024-03-08T08:54:00;27.57;;;20.43;;
7213;SDS011;3648;50.614;13.830;2024-03-08T08:56:27;30.53;;;21.50;;
7213;SDS011;3648;50.614;13.830;2024-03-08T08:58:54;32.07;;;21.53;;
7213;SDS011;3648;50.614;13.830;2024-03-08T09:01:21;28.70;;;21.23;;
7213;SDS011;3648;50.614;13.830;2024-03-08T09:03:48;29.63;;;19.90;;
7213;SDS011;3648;50.614;13.830;2024-03-08T09:06:15;28.83;;;22.07;;
7213;SDS011;3648;50.614;13.830;2024-03-08T09:08:43;28.77;;;20.57;;
7213;SDS011;3648;50.614;13.830;2024-03-08T09:11:12;25.30;;;19.70;;
7213;SDS011;3648;50.614;13.830;2024-03-08T09:13:40;31.70;;;20.47;;
7213;SDS011;3648;50.614;13.830;2024-03-08T09:16:07;29.13;;;20.47;;
7213;SDS011;3648;50.614;13.830;2024-03-08T09:18:35;29.17;;;20.57;;
7213;SDS011;3648;50.614;13.830;2024-03-08T09:21:03;26.13;;;18.67;;
7213;SDS011;3648;50.614;13.830;2024-03-08T09:23:34;31.13;;;23.23;;
7213;SDS011;3648;50.614;13.830;2024-03-08T09:26:01;29.27;;;21.70;;
7213;SDS011;3648;50.614;13.830;2024-03-08T09:28:30;28.53;;;21.07;;
7213;SDS011;3648;50.614;13.830;2024-03-08T09:30:57;29.03;;;21.97;;
7213;SDS011;3648;50.614;13.830;2024-03-08T09:33:26;26.17;;;20.13;;
7213;SDS011;3648;50.614;13.830;2024-03-08T09:35:54;26.93;;;20.27;;
7213;SDS011;3648;50.614;13.830;2024-03-08T09:38:22;25.23;;;18.70;;
7213;SDS011;3648;50.614;13.830;2024-03-08T09:40:50;27.50;;;19.10;;
7213;SDS011;3648;50.614;13.830;2024-03-08T09:43:18;27.87;;;20.03;;
7213;SDS011;3648;50.614;13.830;2024-03-08T09:45:46;26.33;;;20.50;;
7213;SDS011;3648;50.614;13.830;2024-03-08T09:48:16;25.70;;;19.53;;
7213;SDS011;3648;50.614;13.830;2024-03-08T09:50:45;27.73;;;19.77;;
7213;SDS011;3648;50.614;13.830;2024-03-08T09:53:13;27.50;;;20.33;;
7213;SDS011;3648;50.614;13.830;2024-03-08T09:55:40;24.47;;;18.50;;
7213;SDS011;3648;50.614;13.830;2024-03-08T09:58:11;26.00;;;20.10;;
7213;SDS011;3648;50.614;13.830;2024-03-08T10:01:17;25.80;;;17.77;;
7213;SDS011;3648;50.614;13.830;2024-03-08T10:03:45;25.83;;;18.50;;
7213;SDS011;3648;50.614;13.830;2024-03-08T10:06:14;26.93;;;19.27;;
7213;SDS011;3648;50.614;13.830;2024-03-08T10:08:41;25.13;;;18.10;;
7213;SDS011;3648;50.614;13.830;2024-03-08T10:11:08;26.93;;;19.10;;
7213;SDS011;3648;50.614;13.830;2024-03-08T10:13:36;25.90;;;19.87;;
7213;SDS011;3648;50.614;13.830;2024-03-08T10:16:05;25.60;;;18.40;;
7213;SDS011;3648;50.614;13.830;2024-03-08T10:18:34;23.73;;;17.93;;
7213;SDS011;3648;50.614;13.830;2024-03-08T10:21:02;22.93;;;16.27;;
7213;SDS011;3648;50.614;13.830;2024-03-08T10:23:30;24.00;;;18.20;;
7213;SDS011;3648;50.614;13.830;2024-03-08T10:26:01;22.67;;;17.37;;
7213;SDS011;3648;50.614;13.830;2024-03-08T10:28:36;21.60;;;17.60;;
7213;SDS011;3648;50.614;13.830;2024-03-08T10:31:03;24.27;;;17.97;;
7213;SDS011;3648;50.614;13.830;2024-03-08T10:33:30;21.83;;;17.03;;
7213;SDS011;3648;50.614;13.830;2024-03-08T10:35:59;24.50;;;17.43;;
7213;SDS011;3648;50.614;13.830;2024-03-08T10:38:28;24.60;;;18.70;;
7213;SDS011;3648;50.614;13.830;2024-03-08T10:40:59;26.37;;;17.30;;
7213;SDS011;3648;50.614;13.830;2024-03-08T10:43:28;23.27;;;17.70;;
7213;SDS011;3648;50.614;13.830;2024-03-08T10:46:05;24.53;;;18.53;;
7213;SDS011;3648;50.614;13.830;2024-03-08T10:48:43;23.33;;;16.60;;
7213;SDS011;3648;50.614;13.830;2024-03-08T10:51:12;22.93;;;17.23;;
7213;SDS011;3648;50.614;13.830;2024-03-08T10:53:41;25.47;;;19.00;;
7213;SDS011;3648;50.614;13.830;2024-03-08T10:56:10;25.40;;;18.80;;
7213;SDS011;3648;50.614;13.830;2024-03-08T10:58:39;24.73;;;17.17;;
7213;SDS011;3648;50.614;13.830;2024-03-08T11:01:09;25.50;;;18.07;;
7213;SDS011;3648;50.614;13.830;2024-03-08T11:03:46;25.47;;;18.27;;
7213;SDS011;3648;50.614;13.830;2024-03-08T11:06:22;26.17;;;19.03;;
7213;SDS011;3648;50.614;13.830;2024-03-08T11:08:55;25.23;;;18.33;;
7213;SDS011;3648;50.614;13.830;2024-03-08T11:11:24;24.80;;;17.97;;
7213;SDS011;3648;50.614;13.830;2024-03-08T11:13:56;23.27;;;17.30;;
7213;SDS011;3648;50.614;13.830;2024-03-08T11:16:36;23.87;;;18.23;;
7213;SDS011;3648;50.614;13.830;2024-03-08T11:19:07;21.97;;;16.17;;
7213;SDS011;3648;50.614;13.830;2024-03-08T11:22:01;21.23;;;16.07;;
7213;SDS011;3648;50.614;13.830;2024-03-08T11:24:38;26.43;;;18.57;;
7213;SDS011;3648;50.614;13.830;2024-03-08T11:27:10;24.27;;;17.17;;
7213;SDS011;3648;50.614;13.830;2024-03-08T11:29:37;24.07;;;17.73;;
7213;SDS011;3648;50.614;13.830;2024-03-08T11:32:08;23.00;;;17.67;;
7213;SDS011;3648;50.614;13.830;2024-03-08T11:34:36;20.47;;;15.77;;
7213;SDS011;3648;50.614;13.830;2024-03-08T11:37:07;23.33;;;18.03;;
7213;SDS011;3648;50.614;13.830;2024-03-08T11:39:40;23.60;;;16.73;;
7213;SDS011;3648;50.614;13.830;2024-03-08T11:42:12;23.33;;;17.43;;
7213;SDS011;3648;50.614;13.830;2024-03-08T11:44:39;21.47;;;15.30;;
7213;SDS011;3648;50.614;13.830;2024-03-08T11:47:09;23.17;;;16.20;;
7213;SDS011;3648;50.614;13.830;2024-03-08T11:49:37;23.17;;;16.90;;
7213;SDS011;3648;50.614;13.830;2024-03-08T11:52:05;23.70;;;17.47;;
7213;SDS011;3648;50.614;13.830;2024-03-08T11:54:37;24.70;;;16.90;;
7213;SDS011;3648;50.614;13.830;2024-03-08T11:57:04;24.60;;;18.07;;
7213;SDS011;3648;50.614;13.830;2024-03-08T11:59:31;22.50;;;17.27;;
7213;SDS011;3648;50.614;13.830;2024-03-08T12:01:59;20.23;;;15.43;;
7213;SDS011;3648;50.614;13.830;2024-03-08T12:04:28;20.93;;;16.80;;
7213;SDS011;3648;50.614;13.830;2024-03-08T12:06:56;24.77;;;18.53;;
7213;SDS011;3648;50.614;13.830;2024-03-08T12:09:28;22.77;;;16.97;;
7213;SDS011;3648;50.614;13.830;2024-03-08T12:11:55;24.77;;;17.63;;
7213;SDS011;3648;50.614;13.830;2024-03-08T12:14:22;23.27;;;17.33;;
7213;SDS011;3648;50.614;13.830;2024-03-08T12:16:50;22.27;;;16.83;;
7213;SDS011;3648;50.614;13.830;2024-03-08T12:19:18;22.90;;;17.40;;
7213;SDS011;3648;50.614;13.830;2024-03-08T12:21:45;24.10;;;17.60;;
7213;SDS011;3648;50.614;13.830;2024-03-08T12:24:14;22.87;;;17.00;;
7213;SDS011;3648;50.614;13.830;2024-03-08T12:26:46;22.37;;;16.53;;
7213;SDS011;3648;50.614;13.830;2024-03-08T12:29:14;21.70;;;17.00;;
7213;SDS011;3648;50.614;13.830;2024-03-08T12:31:43;22.10;;;16.20;;
7213;SDS011;3648;50.614;13.830;2024-03-08T12:34:11;21.97;;;15.73;;
7213;SDS011;3648;50.614;13.830;2024-03-08T12:36:39;21.93;;;16.50;;
7213;SDS011;3648;50.614;13.830;2024-03-08T12:39:12;20.00;;;14.83;;
7213;SDS011;3648;50.614;13.830;2024-03-08T12:41:42;23.47;;;17.37;;
7213;SDS011;3648;50.614;13.830;2024-03-08T12:44:11;20.53;;;15.43;;
7213;SDS011;3648;50.614;13.830;2024-03-08T12:46:37;20.27;;;15.90;;
7213;SDS011;3648;50.614;13.830;2024-03-08T12:49:07;23.70;;;17.40;;
7213;SDS011;3648;50.614;13.830;2024-03-08T12:51:36;23.00;;;16.47;;
7213;SDS011;3648;50.614;13.830;2024-03-08T12:54:04;23.03;;;16.97;;
7213;SDS011;3648;50.614;13.830;2024-03-08T12:56:32;21.50;;;15.33;;
7213;SDS011;3648;50.614;13.830;2024-03-08T12:59:00;19.37;;;14.93;;
7213;SDS011;3648;50.614;13.830;2024-03-08T13:01:29;19.00;;;15.17;;
7213;SDS011;3648;50.614;13.830;2024-03-08T13:03:57;21.83;;;16.23;;
7213;SDS011;3648;50.614;13.830;2024-03-08T13:06:24;19.27;;;13.10;;
7213;SDS011;3648;50.614;13.830;2024-03-08T13:08:51;17.93;;;12.90;;
7213;SDS011;3648;50.614;13.830;2024-03-08T13:11:18;18.43;;;13.40;;
7213;SDS011;3648;50.614;13.830;2024-03-08T13:13:46;18.23;;;12.17;;
7213;SDS011;3648;50.614;13.830;2024-03-08T13:16:13;18.40;;;13.23;;
7213;SDS011;3648;50.614;13.830;2024-03-08T13:18:43;17.37;;;12.73;;
7213;SDS011;3648;50.614;13.830;2024-03-08T13:21:11;21.03;;;13.77;;
7213;SDS011;3648;50.614;13.830;2024-03-08T13:23:40;17.07;;;12.77;;
7213;SDS011;3648;50.614;13.830;2024-03-08T13:26:10;16.37;;;12.87;;
7213;SDS011;3648;50.614;13.830;2024-03-08T13:28:40;15.03;;;11.93;;
7213;SDS011;3648;50.614;13.830;2024-03-08T13:31:07;16.73;;;11.20;;
7213;SDS011;3648;50.614;13.830;2024-03-08T13:33:35;16.40;;;12.20;;
7213;SDS011;3648;50.614;13.830;2024-03-08T13:36:03;14.00;;;10.93;;
7213;SDS011;3648;50.614;13.830;2024-03-08T13:38:39;14.70;;;10.70;;
7213;SDS011;3648;50.614;13.830;2024-03-08T13:41:07;16.27;;;11.07;;
7213;SDS011;3648;50.614;13.830;2024-03-08T13:43:34;15.80;;;11.23;;
7213;SDS011;3648;50.614;13.830;2024-03-08T13:46:02;14.70;;;10.83;;
7213;SDS011;3648;50.614;13.830;2024-03-08T13:48:28;13.87;;;10.73;;
7213;SDS011;3648;50.614;13.830;2024-03-08T13:50:56;15.03;;;10.90;;
7213;SDS011;3648;50.614;13.830;2024-03-08T13:53:25;16.67;;;12.60;;
7213;SDS011;3648;50.614;13.830;2024-03-08T13:55:52;14.43;;;11.17;;
7213;SDS011;3648;50.614;13.830;2024-03-08T13:58:20;14.43;;;10.73;;
7213;SDS011;3648;50.614;13.830;2024-03-08T14:00:47;16.90;;;12.00;;
7213;SDS011;3648;50.614;13.830;2024-03-08T14:03:14;15.63;;;11.80;;
7213;SDS011;3648;50.614;13.830;2024-03-08T14:05:42;16.83;;;11.63;;
7213;SDS011;3648;50.614;13.830;2024-03-08T14:08:10;14.47;;;10.93;;
7213;SDS011;3648;50.614;13.830;2024-03-08T14:10:39;16.40;;;12.37;;
7213;SDS011;3648;50.614;13.830;2024-03-08T14:13:07;15.03;;;11.10;;
7213;SDS011;3648;50.614;13.830;2024-03-08T14:15:35;15.17;;;12.10;;
7213;SDS011;3648;50.614;13.830;2024-03-08T14:18:06;16.57;;;11.63;;
7213;SDS011;3648;50.614;13.830;2024-03-08T14:20:33;16.57;;;12.03;;
7213;SDS011;3648;50.614;13.830;2024-03-08T14:23:00;15.63;;;13.07;;
7213;SDS011;3648;50.614;13.830;2024-03-08T14:25:28;18.97;;;12.37;;
7213;SDS011;3648;50.614;13.830;2024-03-08T14:27:56;16.10;;;12.13;;
7213;SDS011;3648;50.614;13.830;2024-03-08T14:30:27;16.63;;;12.07;;
7213;SDS011;3648;50.614;13.830;2024-03-08T14:33:03;16.77;;;12.00;;
7213;SDS011;3648;50.614;13.830;2024-03-08T14:35:34;16.17;;;13.17;;
7213;SDS011;3648;50.614;13.830;2024-03-08T14:38:01;16.07;;;11.97;;
7213;SDS011;3648;50.614;13.830;2024-03-08T14:40:28;19.17;;;12.57;;
7213;SDS011;3648;50.614;13.830;2024-03-08T14:42:57;15.83;;;12.30;;
7213;SDS011;3648;50.614;13.830;2024-03-08T14:45:24;15.87;;;12.93;;
7213;SDS011;3648;50.614;13.830;2024-03-08T14:47:51;15.60;;;12.47;;
7213;SDS011;3648;50.614;13.830;2024-03-08T14:50:20;15.20;;;12.40;;
7213;SDS011;3648;50.614;13.830;2024-03-08T14:52:49;14.13;;;11.40;;
7213;SDS011;3648;50.614;13.830;2024-03-08T14:55:16;15.77;;;12.20;;
7213;SDS011;3648;50.614;13.830;2024-03-08T14:57:47;16.37;;;12.60;;
7213;SDS011;3648;50.614;13.830;2024-03-08T15:00:17;14.70;;;12.00;;
7213;SDS011;3648;50.614;13.830;2024-03-08T15:02:51;14.33;;;11.60;;
7213;SDS011;3648;50.614;13.830;2024-03-08T15:05:19;13.90;;;11.87;;
7213;SDS011;3648;50.614;13.830;2024-03-08T15:07:46;15.40;;;11.83;;
7213;SDS011;3648;50.614;13.830;2024-03-08T15:10:14;13.67;;;10.50;;
7213;SDS011;3648;50.614;13.830;2024-03-08T15:12:45;14.03;;;10.90;;
7213;SDS011;3648;50.614;13.830;2024-03-08T15:15:13;13.73;;;10.33;;
7213;SDS011;3648;50.614;13.830;2024-03-08T15:17:44;14.47;;;10.33;;
7213;SDS011;3648;50.614;13.830;2024-03-08T15:20:12;13.90;;;10.47;;